Time,TemperatureF,DewpointF,PressureIn,WindDirection,WindDirectionDegrees,WindSpeedMPH,WindSpeedGustMPH,Humidity,HourlyPrecipIn,Conditions,Clouds,dailyrainin,SolarRadiationWatts/m^2,SoftwareType,DateUTC
2013-02-05 00:01:00,30.0,30.0,-100.00,NNE,18,4.0,5.0,99,-99.99,,,0.00,0.000000,,2013-02-05 07:01:00,
2013-02-05 00:11:00,30.0,30.0,-100.00,NNE,18,4.0,5.0,99,-99.99,,,0.00,0.000000,,2013-02-05 07:11:00,
2013-02-05 00:31:00,30.0,30.0,-100.00,North,10,2.0,4.0,100,-99.99,,,0.00,0.000000,,2013-02-05 07:31:00,
2013-02-05 00:41:00,30.0,30.0,-100.00,North,10,2.0,4.0,100,-99.99,,,0.00,0.000000,,2013-02-05 07:41:00,
2013-02-05 00:52:00,30.0,30.0,-100.00,North,10,2.0,4.0,100,-99.99,,,0.00,0.000000,,2013-02-05 07:52:00,
2013-02-05 01:01:00,30.0,30.0,-100.00,North,10,2.0,4.0,100,-99.99,,,0.00,0.000000,,2013-02-05 08:01:00,
2013-02-05 01:11:00,30.0,30.0,-100.00,North,10,2.0,4.0,100,-99.99,,,0.00,0.000000,,2013-02-05 08:11:00,
2013-02-05 01:41:00,30.0,30.0,-100.00,ESE,108,4.0,7.0,99,-99.99,,,0.00,0.000000,,2013-02-05 08:41:00,
2013-02-05 01:52:00,30.0,30.0,-100.00,ESE,108,4.0,7.0,99,-99.99,,,0.00,0.000000,,2013-02-05 08:52:00,
2013-02-05 02:02:00,30.0,30.0,-100.00,ESE,108,4.0,7.0,99,-99.99,,,0.00,0.000000,,2013-02-05 09:02:00,
2013-02-05 02:11:00,30.0,30.0,-100.00,ESE,108,4.0,7.0,99,-99.99,,,0.00,0.000000,,2013-02-05 09:11:00,
2013-02-05 02:42:00,30.0,30.0,-100.00,NNW,330,5.0,6.0,100,-99.99,,,0.00,0.000000,,2013-02-05 09:42:00,
2013-02-05 02:52:00,30.0,30.0,-100.00,NNW,330,5.0,6.0,100,-99.99,,,0.00,0.000000,,2013-02-05 09:52:00,
2013-02-05 03:01:00,30.0,30.0,-100.00,NNW,330,5.0,6.0,100,-99.99,,,0.00,0.000000,,2013-02-05 10:01:00,
2013-02-05 03:11:00,30.0,30.0,-100.00,NNW,330,5.0,6.0,100,-99.99,,,0.00,0.000000,,2013-02-05 10:11:00,
2013-02-05 03:42:00,30.0,30.0,-100.00,NNE,26,7.0,9.0,99,-99.99,,,0.00,0.000000,,2013-02-05 10:42:00,
2013-02-05 03:52:00,30.0,30.0,-100.00,NNE,26,7.0,9.0,99,-99.99,,,0.00,0.000000,,2013-02-05 10:52:00,
2013-02-05 04:01:00,30.0,30.0,-100.00,NNE,26,7.0,9.0,99,-99.99,,,0.00,0.000000,,2013-02-05 11:01:00,
2013-02-05 04:11:00,30.0,30.0,-100.00,NNE,26,7.0,9.0,99,-99.99,,,0.00,0.000000,,2013-02-05 11:11:00,
2013-02-05 04:41:00,30.0,29.0,-100.00,North,9,8.0,10.0,97,-99.99,,,0.00,0.000000,,2013-02-05 11:41:00,
2013-02-05 04:52:00,30.0,29.0,-100.00,North,9,8.0,10.0,97,-99.99,,,0.00,0.000000,,2013-02-05 11:52:00,
2013-02-05 05:01:00,30.0,29.0,-100.00,North,9,8.0,10.0,97,-99.99,,,0.00,0.000000,,2013-02-05 12:01:00,
2013-02-05 05:12:00,30.0,29.0,-100.00,North,9,8.0,10.0,97,-99.99,,,0.00,0.000000,,2013-02-05 12:12:00,
2013-02-05 05:32:00,30.0,29.0,-100.00,NNE,27,8.0,10.0,97,-99.99,,,-99.99,0.000000,,2013-02-05 12:32:00,
2013-02-05 05:42:00,30.0,29.0,-100.00,NNE,27,8.0,10.0,97,-99.99,,,-99.99,0.000000,,2013-02-05 12:42:00,
2013-02-05 05:52:00,30.0,29.0,-100.00,NNE,27,8.0,10.0,97,-99.99,,,-99.99,0.000000,,2013-02-05 12:52:00,
2013-02-05 06:01:00,30.0,29.0,-100.00,NNE,27,8.0,10.0,97,-99.99,,,-99.99,0.000000,,2013-02-05 13:01:00,
2013-02-05 06:11:00,30.0,29.0,-100.00,NNE,27,8.0,10.0,97,-99.99,,,-99.99,0.000000,,2013-02-05 13:11:00,
2013-02-05 06:31:00,30.0,29.0,-100.00,NNE,13,7.0,10.0,95,-99.99,,,0.00,0.000000,,2013-02-05 13:31:00,
2013-02-05 06:42:00,30.0,29.0,-100.00,NNE,13,7.0,10.0,95,-99.99,,,0.00,0.000000,,2013-02-05 13:42:00,
2013-02-05 06:52:00,30.0,29.0,-100.00,NNE,13,7.0,10.0,95,-99.99,,,0.00,0.000000,,2013-02-05 13:52:00,
2013-02-05 07:01:00,30.0,29.0,-100.00,NNE,13,7.0,10.0,95,-99.99,,,0.00,0.000000,,2013-02-05 14:01:00,
2013-02-05 07:12:00,30.0,29.0,-100.00,NNE,13,7.0,10.0,95,-99.99,,,0.00,0.000000,,2013-02-05 14:12:00,
2013-02-05 07:42:00,29.0,28.0,-100.00,North,9,7.0,9.0,97,-99.99,,,0.00,0.000000,,2013-02-05 14:42:00,
2013-02-05 07:52:00,29.0,28.0,-100.00,North,9,7.0,9.0,97,-99.99,,,0.00,0.000000,,2013-02-05 14:52:00,
2013-02-05 08:01:00,29.0,28.0,-100.00,North,9,7.0,9.0,97,-99.99,,,0.00,0.000000,,2013-02-05 15:01:00,
2013-02-05 08:11:00,29.0,28.0,-100.00,North,9,7.0,9.0,97,-99.99,,,0.00,0.000000,,2013-02-05 15:11:00,
2013-02-05 08:41:00,27.0,27.0,-100.00,North,6,7.0,10.0,99,-99.99,,,0.00,31.260000,,2013-02-05 15:41:00,
2013-02-05 08:52:00,27.0,27.0,-100.00,North,6,7.0,10.0,99,-99.99,,,0.00,31.260000,,2013-02-05 15:52:00,
2013-02-05 09:01:00,27.0,27.0,-100.00,North,6,7.0,10.0,99,-99.99,,,0.00,31.260000,,2013-02-05 16:01:00,
2013-02-05 09:11:00,27.0,27.0,-100.00,North,6,7.0,10.0,99,-99.99,,,0.00,31.260000,,2013-02-05 16:11:00,
2013-02-05 09:42:00,27.0,27.0,-100.00,North,7,8.0,10.0,98,-99.99,,,0.00,135.050003,,2013-02-05 16:42:00,
2013-02-05 09:52:00,27.0,27.0,-100.00,North,7,8.0,10.0,98,-99.99,,,0.00,135.050003,,2013-02-05 16:52:00,
2013-02-05 10:01:00,27.0,27.0,-100.00,North,7,8.0,10.0,98,-99.99,,,0.00,135.050003,,2013-02-05 17:01:00,
2013-02-05 10:11:00,27.0,27.0,-100.00,North,7,8.0,10.0,98,-99.99,,,0.00,135.050003,,2013-02-05 17:11:00,
2013-02-05 11:11:00,29.0,28.0,-100.00,North,8,9.0,11.0,96,-99.99,,,0.00,304.959991,,2013-02-05 18:11:00,
2013-02-05 13:11:00,35.0,30.0,-100.00,NNE,19,10.0,14.0,80,-99.99,,,0.00,651.530029,,2013-02-05 20:11:00,
2013-02-05 14:11:00,36.0,30.0,-100.00,NNE,21,8.0,11.0,80,-99.99,,,0.00,450.929993,,2013-02-05 21:11:00,
2013-02-05 15:11:00,38.0,31.0,-100.00,North,357,5.0,6.0,75,-99.99,,,0.00,478.589996,,2013-02-05 22:11:00,
2013-02-05 16:11:00,38.0,32.0,-100.00,North,11,4.0,5.0,76,-99.99,,,0.00,423.510010,,2013-02-05 23:11:00,
2013-02-05 16:41:00,37.0,30.0,-100.00,NNE,20,5.0,6.0,78,-99.99,,,0.00,170.610001,,2013-02-05 23:41:00,
2013-02-05 16:52:00,37.0,30.0,-100.00,NNE,20,5.0,6.0,78,-99.99,,,0.00,170.610001,,2013-02-05 23:52:00,
2013-02-05 17:01:00,37.0,30.0,-100.00,NNE,20,5.0,6.0,78,-99.99,,,0.00,170.610001,,2013-02-06 00:01:00,
2013-02-05 17:11:00,37.0,30.0,-100.00,NNE,20,5.0,6.0,78,-99.99,,,0.00,170.610001,,2013-02-06 00:11:00,
2013-02-05 18:11:00,34.0,30.0,-100.00,North,9,5.0,6.0,83,-99.99,,,0.00,54.740002,,2013-02-06 01:11:00,
2013-02-05 19:11:00,32.0,28.0,-100.00,NNE,19,5.0,6.0,85,-99.99,,,0.00,0.230000,,2013-02-06 02:11:00,
2013-02-05 20:12:00,32.0,30.0,-100.00,North,350,6.0,9.0,90,-99.99,,,0.00,0.000000,,2013-02-06 03:12:00,
2013-02-05 21:11:00,32.0,29.0,-100.00,North,0,4.0,5.0,89,-99.99,,,0.00,0.000000,,2013-02-06 04:11:00,
2013-02-05 22:12:00,30.0,28.0,-100.00,NNE,21,2.0,4.0,92,-99.99,,,0.00,0.000000,,2013-02-06 05:12:00,
2013-02-05 23:11:00,28.0,27.0,-100.00,ENE,76,2.0,3.0,97,-99.99,,,0.00,0.000000,,2013-02-06 06:11:00,